sensor_id;sensor_type;location;lat;lon;timestamp;pressure;altitude;pressure_sealevel;temperature;humidity
49835;BME280;35729;52.090;13.162;2023-01-28T00:01:20;102112.91;;;0.40;92.48
49835;BME280;35729;52.090;13.162;2023-01-28T00:03:48;102113.72;;;0.39;92.25
49835;BME280;35729;52.090;13.162;2023-01-28T00:06:18;102120.59;;;0.38;92.21
49835;BME280;35729;52.090;13.162;2023-01-28T00:08:53;102117.91;;;0.37;92.69
49835;BME280;35729;52.090;13.162;2023-01-28T00:11:22;102119.63;;;0.36;92.32
49835;BME280;35729;52.090;13.162;2023-01-28T00:13:53;102121.19;;;0.32;91.07
49835;BME280;35729;52.090;13.162;2023-01-28T00:16:22;102114.94;;;0.27;90.82
49835;BME280;35729;52.090;13.162;2023-01-28T00:18:51;102112.31;;;0.26;91.28
49835;BME280;35729;52.090;13.162;2023-01-28T00:21:20;102111.25;;;0.21;90.53
49835;BME280;35729;52.090;13.162;2023-01-28T00:23:51;102112.84;;;0.19;91.48
49835;BME280;35729;52.090;13.162;2023-01-28T00:26:21;102116.13;;;0.14;90.47
49835;BME280;35729;52.090;13.162;2023-01-28T00:28:59;102119.53;;;0.13;91.36
49835;BME280;35729;52.090;13.162;2023-01-28T00:31:28;102119.41;;;0.10;91.15
49835;BME280;35729;52.090;13.162;2023-01-28T00:33:56;102133.94;;;0.08;91.18
49835;BME280;35729;52.090;13.162;2023-01-28T00:36:26;102124.31;;;0.04;90.21
49835;BME280;35729;52.090;13.162;2023-01-28T00:38:56;102123.34;;;0.02;90.68
49835;BME280;35729;52.090;13.162;2023-01-28T00:41:26;102126.66;;;-0.01;91.23
49835;BME280;35729;52.090;13.162;2023-01-28T00:43:55;102127.47;;;-0.02;90.21
49835;BME280;35729;52.090;13.162;2023-01-28T00:46:27;102131.63;;;-0.05;90.62
49835;BME280;35729;52.090;13.162;2023-01-28T00:48:55;102134.19;;;-0.05;90.63
49835;BME280;35729;52.090;13.162;2023-01-28T00:51:24;102131.56;;;-0.07;90.25
49835;BME280;35729;52.090;13.162;2023-01-28T00:53:53;102140.09;;;-0.08;90.75
49835;BME280;35729;52.090;13.162;2023-01-28T00:56:21;102141.75;;;-0.10;90.90
49835;BME280;35729;52.090;13.162;2023-01-28T00:58:50;102134.75;;;-0.12;89.84
49835;BME280;35729;52.090;13.162;2023-01-28T01:01:21;102139.91;;;-0.12;90.07
49835;BME280;35729;52.090;13.162;2023-01-28T01:03:53;102146.63;;;-0.16;89.81
49835;BME280;35729;52.090;13.162;2023-01-28T01:06:28;102151.78;;;-0.16;90.16
49835;BME280;35729;52.090;13.162;2023-01-28T01:08:56;102152.53;;;-0.19;88.88
49835;BME280;35729;52.090;13.162;2023-01-28T01:11:25;102147.31;;;-0.20;88.21
49835;BME280;35729;52.090;13.162;2023-01-28T01:13:55;102148.06;;;-0.23;88.94
49835;BME280;35729;52.090;13.162;2023-01-28T01:16:26;102145.22;;;-0.29;89.30
49835;BME280;35729;52.090;13.162;2023-01-28T01:18:59;102152.19;;;-0.26;89.07
49835;BME280;35729;52.090;13.162;2023-01-28T01:21:29;102152.09;;;-0.28;89.25
49835;BME280;35729;52.090;13.162;2023-01-28T01:23:58;102153.81;;;-0.28;88.90
49835;BME280;35729;52.090;13.162;2023-01-28T01:26:26;102153.75;;;-0.30;87.96
49835;BME280;35729;52.090;13.162;2023-01-28T01:28:55;102148.53;;;-0.31;88.76
49835;BME280;35729;52.090;13.162;2023-01-28T01:31:23;102152.66;;;-0.35;88.01
49835;BME280;35729;52.090;13.162;2023-01-28T01:33:52;102152.66;;;-0.35;88.29
49835;BME280;35729;52.090;13.162;2023-01-28T01:36:23;102151.69;;;-0.37;89.77
49835;BME280;35729;52.090;13.162;2023-01-28T01:38:52;102164.59;;;-0.37;88.90
49835;BME280;35729;52.090;13.162;2023-01-28T01:41:24;102159.22;;;-0.42;87.96
49835;BME280;35729;52.090;13.162;2023-01-28T01:43:55;102159.38;;;-0.39;89.35
49835;BME280;35729;52.090;13.162;2023-01-28T01:46:35;102153.31;;;-0.39;89.90
49835;BME280;35729;52.090;13.162;2023-01-28T01:49:11;102162.75;;;-0.40;89.38
49835;BME280;35729;52.090;13.162;2023-01-28T01:51:46;102162.75;;;-0.40;89.84
49835;BME280;35729;52.090;13.162;2023-01-28T01:54:16;102165.28;;;-0.41;89.71
49835;BME280;35729;52.090;13.162;2023-01-28T01:56:47;102166.06;;;-0.42;88.89
49835;BME280;35729;52.090;13.162;2023-01-28T01:59:21;102174.56;;;-0.45;89.55
49835;BME280;35729;52.090;13.162;2023-01-28T02:01:51;102177.94;;;-0.46;87.05
49835;BME280;35729;52.090;13.162;2023-01-28T02:04:24;102186.47;;;-0.47;89.16
49835;BME280;35729;52.090;13.162;2023-01-28T02:06:56;102178.69;;;-0.48;89.16
49835;BME280;35729;52.090;13.162;2023-01-28T02:09:27;102191.50;;;-0.50;89.20
49835;BME280;35729;52.090;13.162;2023-01-28T02:11:59;102188.03;;;-0.51;89.10
49835;BME280;35729;52.090;13.162;2023-01-28T02:14:31;102186.28;;;-0.52;89.78
49835;BME280;35729;52.090;13.162;2023-01-28T02:17:02;102181.94;;;-0.53;89.94
49835;BME280;35729;52.090;13.162;2023-01-28T02:19:35;102182.75;;;-0.54;88.73
49835;BME280;35729;52.090;13.162;2023-01-28T02:22:15;102183.47;;;-0.56;89.14
49835;BME280;35729;52.090;13.162;2023-01-28T02:25:03;102185.19;;;-0.57;88.98
49835;BME280;35729;52.090;13.162;2023-01-28T02:27:54;102188.56;;;-0.58;89.47
49835;BME280;35729;52.090;13.162;2023-01-28T02:30:32;102188.50;;;-0.59;89.32
49835;BME280;35729;52.090;13.162;2023-01-28T02:33:04;102183.13;;;-0.64;88.91
49835;BME280;35729;52.090;13.162;2023-01-28T02:35:41;102191.00;;;-0.61;89.92
49835;BME280;35729;52.090;13.162;2023-01-28T02:38:17;102197.91;;;-0.60;90.43
49835;BME280;35729;52.090;13.162;2023-01-28T02:40:51;102186.72;;;-0.60;89.50
49835;BME280;35729;52.090;13.162;2023-01-28T02:43:38;102193.66;;;-0.59;90.56
49835;BME280;35729;52.090;13.162;2023-01-28T02:46:14;102188.56;;;-0.58;90.07
49835;BME280;35729;52.090;13.162;2023-01-28T02:48:58;102191.16;;;-0.58;90.52
49835;BME280;35729;52.090;13.162;2023-01-28T02:51:34;102181.72;;;-0.57;90.20
49835;BME280;35729;52.090;13.162;2023-01-28T02:54:11;102189.44;;;-0.57;90.37
49835;BME280;35729;52.090;13.162;2023-01-28T02:56:46;102186.00;;;-0.58;90.69
49835;BME280;35729;52.090;13.162;2023-01-28T02:59:23;102187.78;;;-0.57;90.48
49835;BME280;35729;52.090;13.162;2023-01-28T03:02:06;102187.66;;;-0.58;90.03
49835;BME280;35729;52.090;13.162;2023-01-28T03:04:40;102177.97;;;-0.64;89.08
49835;BME280;35729;52.090;13.162;2023-01-28T03:07:12;102194.41;;;-0.62;89.50
49835;BME280;35729;52.090;13.162;2023-01-28T03:09:44;102195.09;;;-0.64;89.91
49835;BME280;35729;52.090;13.162;2023-01-28T03:12:13;102194.16;;;-0.67;89.47
49835;BME280;35729;52.090;13.162;2023-01-28T03:14:59;102189.03;;;-0.67;89.53
49835;BME280;35729;52.090;13.162;2023-01-28T03:17:44;102182.97;;;-0.67;90.66
49835;BME280;35729;52.090;13.162;2023-01-28T03:20:28;102186.44;;;-0.67;90.12
49835;BME280;35729;52.090;13.162;2023-01-28T03:23:20;102186.44;;;-0.67;90.53
49835;BME280;35729;52.090;13.162;2023-01-28T03:26:02;102184.72;;;-0.66;90.50
49835;BME280;35729;52.090;13.162;2023-01-28T03:28:48;102183.06;;;-0.66;90.68
49835;BME280;35729;52.090;13.162;2023-01-28T03:31:32;102184.81;;;-0.64;90.56
49835;BME280;35729;52.090;13.162;2023-01-28T03:34:15;102185.63;;;-0.66;90.38
49835;BME280;35729;52.090;13.162;2023-01-28T03:36:57;102185.69;;;-0.64;90.18
49835;BME280;35729;52.090;13.162;2023-01-28T03:39:28;102176.88;;;-0.69;90.18
49835;BME280;35729;52.090;13.162;2023-01-28T03:42:02;102186.50;;;-0.65;89.94
49835;BME280;35729;52.090;13.162;2023-01-28T03:44:31;102185.63;;;-0.66;89.94
49835;BME280;35729;52.090;13.162;2023-01-28T03:47:16;102180.47;;;-0.66;89.53
49835;BME280;35729;52.090;13.162;2023-01-28T03:49:46;102177.00;;;-0.66;90.07
49835;BME280;35729;52.090;13.162;2023-01-28T03:52:18;102179.56;;;-0.66;90.30
49835;BME280;35729;52.090;13.162;2023-01-28T03:54:47;102172.38;;;-0.73;89.99
49835;BME280;35729;52.090;13.162;2023-01-28T03:57:19;102171.84;;;-0.66;90.29
49835;BME280;35729;52.090;13.162;2023-01-28T03:59:48;102167.44;;;-0.69;90.01
49835;BME280;35729;52.090;13.162;2023-01-28T04:02:20;102175.91;;;-0.71;89.19
49835;BME280;35729;52.090;13.162;2023-01-28T04:04:51;102184.72;;;-0.66;89.58
49835;BME280;35729;52.090;13.162;2023-01-28T04:07:20;102187.25;;;-0.68;89.71
49835;BME280;35729;52.090;13.162;2023-01-28T04:09:48;102181.97;;;-0.71;89.79
49835;BME280;35729;52.090;13.162;2023-01-28T04:12:17;102183.69;;;-0.70;89.84
49835;BME280;35729;52.090;13.162;2023-01-28T04:14:48;102183.69;;;-0.70;89.73
49835;BME280;35729;52.090;13.162;2023-01-28T04:17:19;102189.69;;;-0.71;89.64
49835;BME280;35729;52.090;13.162;2023-01-28T04:19:47;102190.50;;;-0.72;89.86
49835;BME280;35729;52.090;13.162;2023-01-28T04:22:16;102195.72;;;-0.70;90.07
49835;BME280;35729;52.090;13.162;2023-01-28T04:24:44;102194.00;;;-0.70;90.50
49835;BME280;35729;52.090;13.162;2023-01-28T04:27:13;102188.94;;;-0.68;90.50
49835;BME280;35729;52.090;13.162;2023-01-28T04:29:41;102196.69;;;-0.68;90.21
49835;BME280;35729;52.090;13.162;2023-01-28T04:32:10;102186.38;;;-0.68;90.10
49835;BME280;35729;52.090;13.162;2023-01-28T04:34:41;102198.44;;;-0.67;90.23
49835;BME280;35729;52.090;13.162;2023-01-28T04:37:09;102194.97;;;-0.68;89.63
49835;BME280;35729;52.090;13.162;2023-01-28T04:39:38;102187.19;;;-0.69;89.78
49835;BME280;35729;52.090;13.162;2023-01-28T04:42:09;102195.78;;;-0.69;89.41
49835;BME280;35729;52.090;13.162;2023-01-28T04:44:38;102194.91;;;-0.69;90.18
49835;BME280;35729;52.090;13.162;2023-01-28T04:47:06;102207.00;;;-0.68;90.32
49835;BME280;35729;52.090;13.162;2023-01-28T04:49:35;102200.13;;;-0.68;90.52
49835;BME280;35729;52.090;13.162;2023-01-28T04:52:06;102199.41;;;-0.65;90.43
49835;BME280;35729;52.090;13.162;2023-01-28T04:54:34;102202.84;;;-0.64;90.56
49835;BME280;35729;52.090;13.162;2023-01-28T04:57:03;102203.81;;;-0.62;90.25
49835;BME280;35729;52.090;13.162;2023-01-28T04:59:31;102205.59;;;-0.61;90.28
49835;BME280;35729;52.090;13.162;2023-01-28T05:02:00;102210.81;;;-0.60;90.10
49835;BME280;35729;52.090;13.162;2023-01-28T05:04:29;102211.63;;;-0.61;90.22
49835;BME280;35729;52.090;13.162;2023-01-28T05:06:57;102205.66;;;-0.60;90.25
49835;BME280;35729;52.090;13.162;2023-01-28T05:09:28;102210.81;;;-0.60;90.04
49835;BME280;35729;52.090;13.162;2023-01-28T05:11:57;102212.59;;;-0.59;90.01
49835;BME280;35729;52.090;13.162;2023-01-28T05:14:25;102206.25;;;-0.66;90.09
49835;BME280;35729;52.090;13.162;2023-01-28T05:16:54;102203.88;;;-0.61;90.12
49835;BME280;35729;52.090;13.162;2023-01-28T05:19:22;102213.38;;;-0.60;89.46
49835;BME280;35729;52.090;13.162;2023-01-28T05:21:51;102213.31;;;-0.61;89.84
49835;BME280;35729;52.090;13.162;2023-01-28T05:24:20;102212.44;;;-0.62;89.70
49835;BME280;35729;52.090;13.162;2023-01-28T05:26:51;102222.75;;;-0.62;89.49
49835;BME280;35729;52.090;13.162;2023-01-28T05:29:19;102228.72;;;-0.63;89.48
49835;BME280;35729;52.090;13.162;2023-01-28T05:31:48;102221.63;;;-0.67;89.75
49835;BME280;35729;52.090;13.162;2023-01-28T05:34:16;102234.69;;;-0.64;88.45
49835;BME280;35729;52.090;13.162;2023-01-28T05:36:45;102224.06;;;-0.70;88.38
49835;BME280;35729;52.090;13.162;2023-01-28T05:39:13;102232.78;;;-0.68;87.61
49835;BME280;35729;52.090;13.162;2023-01-28T05:41:42;102237.75;;;-0.71;88.63
49835;BME280;35729;52.090;13.162;2023-01-28T05:44:13;102243.72;;;-0.72;88.43
49835;BME280;35729;52.090;13.162;2023-01-28T05:46:41;102241.97;;;-0.73;88.88
49835;BME280;35729;52.090;13.162;2023-01-28T05:49:11;102237.69;;;-0.73;87.89
49835;BME280;35729;52.090;13.162;2023-01-28T05:51:41;102238.50;;;-0.74;87.71
49835;BME280;35729;52.090;13.162;2023-01-28T05:54:10;102239.31;;;-0.75;86.25
49835;BME280;35729;52.090;13.162;2023-01-28T05:56:45;102230.53;;;-0.78;86.84
49835;BME280;35729;52.090;13.162;2023-01-28T05:59:22;102244.25;;;-0.79;87.29
49835;BME280;35729;52.090;13.162;2023-01-28T06:01:51;102240.78;;;-0.80;87.87
49835;BME280;35729;52.090;13.162;2023-01-28T06:04:19;102232.16;;;-0.80;88.10
49835;BME280;35729;52.090;13.162;2023-01-28T06:06:48;102246.72;;;-0.81;87.09
49835;BME280;35729;52.090;13.162;2023-01-28T06:09:16;102243.22;;;-0.83;87.72
49835;BME280;35729;52.090;13.162;2023-01-28T06:11:45;102244.03;;;-0.84;87.51
49835;BME280;35729;52.090;13.162;2023-01-28T06:14:14;102248.31;;;-0.85;87.81
49835;BME280;35729;52.090;13.162;2023-01-28T06:16:46;102252.56;;;-0.85;87.56
49835;BME280;35729;52.090;13.162;2023-01-28T06:19:14;102250.78;;;-0.86;87.28
49835;BME280;35729;52.090;13.162;2023-01-28T06:21:43;102255.88;;;-0.88;87.09
49835;BME280;35729;52.090;13.162;2023-01-28T06:24:11;102253.22;;;-0.89;87.29
49835;BME280;35729;52.090;13.162;2023-01-28T06:26:40;102262.63;;;-0.90;87.46
49835;BME280;35729;52.090;13.162;2023-01-28T06:29:08;102260.94;;;-0.89;87.60
49835;BME280;35729;52.090;13.162;2023-01-28T06:31:37;102266.16;;;-0.88;88.14
49835;BME280;35729;52.090;13.162;2023-01-28T06:34:08;102260.22;;;-0.87;88.81
49835;BME280;35729;52.090;13.162;2023-01-28T06:36:37;102257.63;;;-0.87;88.32
49835;BME280;35729;52.090;13.162;2023-01-28T06:39:06;102261.09;;;-0.86;87.92
49835;BME280;35729;52.090;13.162;2023-01-28T06:41:34;102263.75;;;-0.85;88.14
49835;BME280;35729;52.090;13.162;2023-01-28T06:44:03;102262.94;;;-0.84;88.22
49835;BME280;35729;52.090;13.162;2023-01-28T06:46:32;102263.09;;;-0.80;88.26
49835;BME280;35729;52.090;13.162;2023-01-28T06:49:01;102264.03;;;-0.78;87.75
49835;BME280;35729;52.090;13.162;2023-01-28T06:51:32;102254.69;;;-0.76;87.94
49835;BME280;35729;52.090;13.162;2023-01-28T06:54:00;102264.28;;;-0.74;87.29
49835;BME280;35729;52.090;13.162;2023-01-28T06:56:29;102263.47;;;-0.73;87.83
49835;BME280;35729;52.090;13.162;2023-01-28T06:58:57;102268.69;;;-0.71;86.59
49835;BME280;35729;52.090;13.162;2023-01-28T07:01:26;102263.59;;;-0.70;87.25
49835;BME280;35729;52.090;13.162;2023-01-28T07:03:55;102256.78;;;-0.69;87.25
49835;BME280;35729;52.090;13.162;2023-01-28T07:06:23;102260.28;;;-0.67;86.88
49835;BME280;35729;52.090;13.162;2023-01-28T07:08:54;102264.72;;;-0.64;87.10
49835;BME280;35729;52.090;13.162;2023-01-28T07:11:23;102269.00;;;-0.65;86.29
49835;BME280;35729;52.090;13.162;2023-01-28T07:13:51;102269.06;;;-0.63;86.31
49835;BME280;35729;52.090;13.162;2023-01-28T07:16:20;102264.81;;;-0.63;86.59
49835;BME280;35729;52.090;13.162;2023-01-28T07:18:48;102258.69;;;-0.65;86.54
49835;BME280;35729;52.090;13.162;2023-01-28T07:21:17;102267.53;;;-0.60;86.06
49835;BME280;35729;52.090;13.162;2023-01-28T07:23:45;102266.72;;;-0.59;85.64
49835;BME280;35729;52.090;13.162;2023-01-28T07:26:16;102271.88;;;-0.59;86.20
49835;BME280;35729;52.090;13.162;2023-01-28T07:28:45;102275.44;;;-0.57;86.16
49835;BME280;35729;52.090;13.162;2023-01-28T07:31:13;102282.41;;;-0.54;85.88
49835;BME280;35729;52.090;13.162;2023-01-28T07:33:42;102275.56;;;-0.54;85.75
49835;BME280;35729;52.090;13.162;2023-01-28T07:36:10;102279.00;;;-0.53;85.34
49835;BME280;35729;52.090;13.162;2023-01-28T07:38:39;102279.19;;;-0.50;85.48
49835;BME280;35729;52.090;13.162;2023-01-28T07:41:07;102279.19;;;-0.50;85.31
49835;BME280;35729;52.090;13.162;2023-01-28T07:43:39;102281.81;;;-0.48;85.06
49835;BME280;35729;52.090;13.162;2023-01-28T07:46:07;102270.69;;;-0.47;85.34
49835;BME280;35729;52.090;13.162;2023-01-28T07:48:36;102274.16;;;-0.47;85.21
49835;BME280;35729;52.090;13.162;2023-01-28T07:51:04;102270.03;;;-0.43;85.18
49835;BME280;35729;52.090;13.162;2023-01-28T07:53:33;102265.84;;;-0.41;85.05
49835;BME280;35729;52.090;13.162;2023-01-28T07:56:02;102273.72;;;-0.38;84.99
49835;BME280;35729;52.090;13.162;2023-01-28T07:58:30;102275.56;;;-0.36;84.70
49835;BME280;35729;52.090;13.162;2023-01-28T08:01:02;102276.06;;;-0.25;85.83
49835;BME280;35729;52.090;13.162;2023-01-28T08:03:31;102269.56;;;-0.17;85.11
49835;BME280;35729;52.090;13.162;2023-01-28T08:06:00;102268.25;;;-0.08;85.35
49835;BME280;35729;52.090;13.162;2023-01-28T08:08:29;102274.50;;;-0.03;85.25
49835;BME280;35729;52.090;13.162;2023-01-28T08:10:57;102270.31;;;-0.01;85.16
49835;BME280;35729;52.090;13.162;2023-01-28T08:13:26;102276.41;;;0.01;84.95
49835;BME280;35729;52.090;13.162;2023-01-28T08:15:55;102267.84;;;0.02;84.50
49835;BME280;35729;52.090;13.162;2023-01-28T08:18:26;102273.91;;;0.03;84.47
49835;BME280;35729;52.090;13.162;2023-01-28T08:20:55;102272.19;;;0.03;84.43
49835;BME280;35729;52.090;13.162;2023-01-28T08:23:25;102266.91;;;0.00;83.94
49835;BME280;35729;52.090;13.162;2023-01-28T08:25:57;102274.03;;;0.06;83.69
49835;BME280;35729;52.090;13.162;2023-01-28T08:28:26;102279.25;;;0.07;83.38
49835;BME280;35729;52.090;13.162;2023-01-28T08:30:55;102288.91;;;0.11;83.50
49835;BME280;35729;52.090;13.162;2023-01-28T08:33:29;102284.72;;;0.13;83.36
49835;BME280;35729;52.090;13.162;2023-01-28T08:35:57;102281.38;;;0.16;83.38
49835;BME280;35729;52.090;13.162;2023-01-28T08:38:29;102288.38;;;0.19;83.07
49835;BME280;35729;52.090;13.162;2023-01-28T08:40:58;102301.34;;;0.20;82.56
49835;BME280;35729;52.090;13.162;2023-01-28T08:43:26;102299.75;;;0.22;83.09
49835;BME280;35729;52.090;13.162;2023-01-28T08:45:55;102298.19;;;0.26;82.75
49835;BME280;35729;52.090;13.162;2023-01-28T08:48:24;102288.53;;;0.22;82.48
49835;BME280;35729;52.090;13.162;2023-01-28T08:50:57;102292.22;;;0.27;82.54
49835;BME280;35729;52.090;13.162;2023-01-28T08:53:26;102303.47;;;0.29;82.41
49835;BME280;35729;52.090;13.162;2023-01-28T08:55:54;102299.16;;;0.28;81.93
49835;BME280;35729;52.090;13.162;2023-01-28T08:58:23;102308.72;;;0.30;82.32
49835;BME280;35729;52.090;13.162;2023-01-28T09:00:51;102317.34;;;0.31;82.49
49835;BME280;35729;52.090;13.162;2023-01-28T09:03:20;102316.53;;;0.32;82.13
49835;BME280;35729;52.090;13.162;2023-01-28T09:05:48;102313.91;;;0.30;81.32
49835;BME280;35729;52.090;13.162;2023-01-28T09:08:19;102321.63;;;0.30;81.22
49835;BME280;35729;52.090;13.162;2023-01-28T09:10:53;102320.75;;;0.30;81.78
49835;BME280;35729;52.090;13.162;2023-01-28T09:13:22;102323.31;;;0.30;82.06
49835;BME280;35729;52.090;13.162;2023-01-28T09:15:51;102321.41;;;0.26;81.88
49835;BME280;35729;52.090;13.162;2023-01-28T09:18:20;102337.19;;;0.32;81.53
49835;BME280;35729;52.090;13.162;2023-01-28T09:20:49;102330.25;;;0.31;80.08
49835;BME280;35729;52.090;13.162;2023-01-28T09:23:20;102332.84;;;0.31;80.67
49835;BME280;35729;52.090;13.162;2023-01-28T09:25:48;102341.56;;;0.33;80.97
49835;BME280;35729;52.090;13.162;2023-01-28T09:28:17;102338.97;;;0.33;80.12
49835;BME280;35729;52.090;13.162;2023-01-28T09:30:46;102327.38;;;0.25;80.73
49835;BME280;35729;52.090;13.162;2023-01-28T09:33:14;102329.28;;;0.29;80.45
49835;BME280;35729;52.090;13.162;2023-01-28T09:35:43;102342.41;;;0.34;80.79
49835;BME280;35729;52.090;13.162;2023-01-28T09:38:12;102345.28;;;0.40;80.53
49835;BME280;35729;52.090;13.162;2023-01-28T09:40:44;102352.22;;;0.41;80.50
49835;BME280;35729;52.090;13.162;2023-01-28T09:43:35;102351.47;;;0.43;79.43
49835;BME280;35729;52.090;13.162;2023-01-28T09:46:12;102357.59;;;0.45;79.96
49835;BME280;35729;52.090;13.162;2023-01-28T09:48:46;102352.34;;;0.44;79.51
49835;BME280;35729;52.090;13.162;2023-01-28T09:51:28;102361.66;;;0.40;77.89
49835;BME280;35729;52.090;13.162;2023-01-28T09:54:02;102356.50;;;0.40;79.63
49835;BME280;35729;52.090;13.162;2023-01-28T09:56:40;102356.50;;;0.40;78.29
49835;BME280;35729;52.090;13.162;2023-01-28T09:59:17;102357.47;;;0.42;79.60
49835;BME280;35729;52.090;13.162;2023-01-28T10:01:52;102355.75;;;0.43;80.07
49835;BME280;35729;52.090;13.162;2023-01-28T10:04:31;102357.53;;;0.44;77.88
49835;BME280;35729;52.090;13.162;2023-01-28T10:07:15;102350.69;;;0.44;79.41
49835;BME280;35729;52.090;13.162;2023-01-28T10:09:54;102351.66;;;0.48;79.70
49835;BME280;35729;52.090;13.162;2023-01-28T10:15:41;102351.91;;;0.53;77.62
49835;BME280;35729;52.090;13.162;2023-01-28T10:18:13;102362.38;;;0.56;77.28
49835;BME280;35729;52.090;13.162;2023-01-28T10:20:43;102357.22;;;0.56;75.71
49835;BME280;35729;52.090;13.162;2023-01-28T10:23:17;102360.59;;;0.55;73.84
49835;BME280;35729;52.090;13.162;2023-01-28T10:25:48;102353.66;;;0.54;76.86
49835;BME280;35729;52.090;13.162;2023-01-28T10:28:22;102362.09;;;0.50;72.39
49835;BME280;35729;52.090;13.162;2023-01-28T10:30:52;102354.25;;;0.48;75.22
49835;BME280;35729;52.090;13.162;2023-01-28T10:33:30;102342.19;;;0.47;75.26
49835;BME280;35729;52.090;13.162;2023-01-28T10:36:06;102342.47;;;0.53;76.57
49835;BME280;35729;52.090;13.162;2023-01-28T10:38:42;102342.59;;;0.56;76.08
49835;BME280;35729;52.090;13.162;2023-01-28T10:41:18;102356.38;;;0.57;71.89
49835;BME280;35729;52.090;13.162;2023-01-28T10:43:49;102345.22;;;0.58;70.68
49835;BME280;35729;52.090;13.162;2023-01-28T10:46:20;102346.19;;;0.60;75.55
49835;BME280;35729;52.090;13.162;2023-01-28T10:48:56;102343.75;;;0.63;75.52
49835;BME280;35729;52.090;13.162;2023-01-28T10:51:32;102345.72;;;0.69;76.03
49835;BME280;35729;52.090;13.162;2023-01-28T10:54:02;102339.88;;;0.73;74.60
49835;BME280;35729;52.090;13.162;2023-01-28T10:56:32;102340.91;;;0.76;74.56
49835;BME280;35729;52.090;13.162;2023-01-28T10:59:06;102330.69;;;0.79;74.92
49835;BME280;35729;52.090;13.162;2023-01-28T11:01:48;102335.84;;;0.79;74.39
49835;BME280;35729;52.090;13.162;2023-01-28T11:04:18;102326.25;;;0.77;71.84
49835;BME280;35729;52.090;13.162;2023-01-28T11:06:54;102324.75;;;0.82;72.99
49835;BME280;35729;52.090;13.162;2023-01-28T11:09:25;102321.38;;;0.83;74.13
49835;BME280;35729;52.090;13.162;2023-01-28T11:11:55;102322.34;;;0.85;74.23
49835;BME280;35729;52.090;13.162;2023-01-28T11:14:26;102334.63;;;0.91;74.34
49835;BME280;35729;52.090;13.162;2023-01-28T11:16:57;102333.00;;;0.93;72.69
49835;BME280;35729;52.090;13.162;2023-01-28T11:19:30;102334.78;;;0.94;73.69
49835;BME280;35729;52.090;13.162;2023-01-28T11:21:59;102336.44;;;0.93;69.23
49835;BME280;35729;52.090;13.162;2023-01-28T11:24:30;102334.63;;;0.91;71.30
49835;BME280;35729;52.090;13.162;2023-01-28T11:27:10;102331.97;;;0.89;71.80
49835;BME280;35729;52.090;13.162;2023-01-28T11:29:45;102336.28;;;0.89;71.58
49835;BME280;35729;52.090;13.162;2023-01-28T11:32:18;102329.34;;;0.88;71.43
49835;BME280;35729;52.090;13.162;2023-01-28T11:34:51;102317.91;;;0.83;69.16
49835;BME280;35729;52.090;13.162;2023-01-28T11:37:23;102318.03;;;0.86;70.29
49835;BME280;35729;52.090;13.162;2023-01-28T11:40:02;102316.19;;;0.83;69.16
49835;BME280;35729;52.090;13.162;2023-01-28T11:42:31;102321.31;;;0.81;70.38
49835;BME280;35729;52.090;13.162;2023-01-28T11:45:02;102320.44;;;0.81;68.54
49835;BME280;35729;52.090;13.162;2023-01-28T11:47:42;102317.75;;;0.79;64.08
49835;BME280;35729;52.090;13.162;2023-01-28T11:50:21;102327.16;;;0.77;67.90
49835;BME280;35729;52.090;13.162;2023-01-28T11:53:03;102328.94;;;0.78;66.35
49835;BME280;35729;52.090;13.162;2023-01-28T11:55:52;102311.78;;;0.80;68.44
49835;BME280;35729;52.090;13.162;2023-01-28T11:58:32;102316.19;;;0.83;69.23
49835;BME280;35729;52.090;13.162;2023-01-28T12:01:11;102311.84;;;0.82;65.03
49835;BME280;35729;52.090;13.162;2023-01-28T12:03:50;102304.84;;;0.79;68.59
49835;BME280;35729;52.090;13.162;2023-01-28T12:06:38;102311.19;;;0.86;69.37
49835;BME280;35729;52.090;13.162;2023-01-28T12:09:18;102300.97;;;0.89;70.70
49835;BME280;35729;52.090;13.162;2023-01-28T12:12:05;102293.41;;;0.94;70.72
49835;BME280;35729;52.090;13.162;2023-01-28T12:15:15;102298.03;;;1.01;70.18
49835;BME280;35729;52.090;13.162;2023-01-28T12:17:59;102292.19;;;1.05;70.60
49835;BME280;35729;52.090;13.162;2023-01-28T12:20:36;102289.72;;;1.08;71.64
49835;BME280;35729;52.090;13.162;2023-01-28T12:23:23;102285.56;;;1.12;71.39
49835;BME280;35729;52.090;13.162;2023-01-28T12:26:04;102286.50;;;1.14;71.34
49835;BME280;35729;52.090;13.162;2023-01-28T12:28:58;102283.28;;;1.20;67.69
49835;BME280;35729;52.090;13.162;2023-01-28T12:31:42;102280.69;;;1.20;69.76
49835;BME280;35729;52.090;13.162;2023-01-28T12:34:39;102287.66;;;1.21;70.45
49835;BME280;35729;52.090;13.162;2023-01-28T12:37:18;102282.47;;;1.21;71.37
49835;BME280;35729;52.090;13.162;2023-01-28T12:40:01;102275.66;;;1.23;71.89
49835;BME280;35729;52.090;13.162;2023-01-28T12:42:36;102275.78;;;1.26;73.00
49835;BME280;35729;52.090;13.162;2023-01-28T12:45:14;102281.97;;;1.29;72.38
49835;BME280;35729;52.090;13.162;2023-01-28T12:47:54;102278.56;;;1.30;72.67
49835;BME280;35729;52.090;13.162;2023-01-28T12:50:30;102284.75;;;1.34;72.31
49835;BME280;35729;52.090;13.162;2023-01-28T12:53:08;102289.94;;;1.34;70.94
49835;BME280;35729;52.090;13.162;2023-01-28T12:55:45;102286.28;;;1.29;70.67
49835;BME280;35729;52.090;13.162;2023-01-28T12:58:19;102282.66;;;1.25;68.80
49835;BME280;35729;52.090;13.162;2023-01-28T13:00:50;102288.44;;;1.20;68.76
49835;BME280;35729;52.090;13.162;2023-01-28T13:03:27;102279.56;;;1.13;70.94
49835;BME280;35729;52.090;13.162;2023-01-28T13:06:04;102282.91;;;1.10;69.54
49835;BME280;35729;52.090;13.162;2023-01-28T13:08:34;102283.72;;;1.09;70.23
49835;BME280;35729;52.090;13.162;2023-01-28T13:11:03;102273.00;;;1.00;70.17
49835;BME280;35729;52.090;13.162;2023-01-28T13:13:34;102288.53;;;1.00;67.57
49835;BME280;35729;52.090;13.162;2023-01-28T13:16:06;102269.47;;;0.98;71.15